createdAt,value
2022-11-10T00:02:35.453Z,59.08
2022-11-10T00:05:21.176Z,54.38
2022-11-10T00:08:07.634Z,57.70
2022-11-10T00:11:01.311Z,55.67
2022-11-10T00:14:10.964Z,57.58
2022-11-10T00:17:04.392Z,53.87
2022-11-10T00:19:50.546Z,56.60
2022-11-10T00:22:36.958Z,56.50
2022-11-10T00:25:23.573Z,53.00
2022-11-10T00:28:09.248Z,56.90
2022-11-10T00:30:55.066Z,60.83
2022-11-10T00:33:42.099Z,57.83
2022-11-10T00:36:27.784Z,57.42
2022-11-10T00:39:13.516Z,60.47
2022-11-10T00:41:59.169Z,57.53
2022-11-10T00:44:44.907Z,57.22
2022-11-10T00:47:31.528Z,55.08
2022-11-10T00:50:17.526Z,54.05
2022-11-10T00:53:03.357Z,55.03
2022-11-10T00:55:49.143Z,56.40
2022-11-10T00:58:34.928Z,58.05
2022-11-10T01:01:21.630Z,58.38
2022-11-10T01:04:07.990Z,58.22
2022-11-10T01:06:53.838Z,58.85
2022-11-10T01:09:39.943Z,57.50
2022-11-10T01:12:29.652Z,58.47
2022-11-10T01:15:15.712Z,54.42
2022-11-10T01:18:01.335Z,56.00
2022-11-10T01:20:51.357Z,55.47
2022-11-10T01:23:37.438Z,53.80
2022-11-10T01:26:23.360Z,52.40
2022-11-10T01:29:09.157Z,53.95
2022-11-10T01:31:54.887Z,58.50
2022-11-10T01:34:40.921Z,54.85
2022-11-10T01:37:27.315Z,55.88
2022-11-10T01:42:59.281Z,60.67
2022-11-10T01:45:55.515Z,60.05
2022-11-10T01:51:44.758Z,57.20
2022-11-10T01:54:32.505Z,58.35
2022-11-10T01:57:18.128Z,58.05
2022-11-10T02:00:04.472Z,56.45
2022-11-10T02:02:54.478Z,56.20
2022-11-10T02:05:40.152Z,54.28
2022-11-10T02:08:26.055Z,54.08
2022-11-10T02:11:12.051Z,52.95
2022-11-10T02:13:57.999Z,52.90
2022-11-10T02:16:43.651Z,52.40
2022-11-10T02:19:29.665Z,51.58
2022-11-10T02:22:15.369Z,47.97
2022-11-10T02:25:01.308Z,44.88
2022-11-10T02:27:47.023Z,47.88
2022-11-10T02:30:33.147Z,43.83
2022-11-10T02:33:19.041Z,44.80
2022-11-10T02:38:50.671Z,45.95
2022-11-10T02:41:36.215Z,43.28
2022-11-10T02:44:21.952Z,42.97
2022-11-10T02:47:07.617Z,46.40
2022-11-10T02:49:53.558Z,48.03
2022-11-10T02:52:39.344Z,47.03
2022-11-10T02:55:25.025Z,44.63
2022-11-10T02:58:10.870Z,44.78
2022-11-10T03:00:56.639Z,45.17
2022-11-10T03:03:42.797Z,44.35
2022-11-10T03:06:28.565Z,43.17
2022-11-10T03:09:14.074Z,46.83
2022-11-10T03:11:59.854Z,49.38
2022-11-10T03:14:45.537Z,49.72
2022-11-10T03:17:31.328Z,48.72
2022-11-10T03:20:17.079Z,49.80
2022-11-10T03:23:04.109Z,46.95
2022-11-10T03:25:50.583Z,47.40
2022-11-10T03:28:36.530Z,49.03
2022-11-10T03:31:22.231Z,48.17
2022-11-10T03:34:08.082Z,45.92
2022-11-10T03:36:53.856Z,47.45
2022-11-10T03:39:39.861Z,43.80
2022-11-10T03:42:25.771Z,44.10
2022-11-10T03:45:12.092Z,42.95
2022-11-10T03:50:43.605Z,39.20
2022-11-10T03:53:29.298Z,39.25
2022-11-10T03:56:14.914Z,36.45
2022-11-10T03:59:00.616Z,40.15
2022-11-10T04:01:46.273Z,39.03
2022-11-10T04:04:50.831Z,40.97
2022-11-10T04:07:55.896Z,39.53
2022-11-10T04:10:41.982Z,43.30
2022-11-10T04:13:46.685Z,36.72
2022-11-10T04:16:32.719Z,40.63
2022-11-10T04:19:18.456Z,41.17
2022-11-10T04:22:04.147Z,42.72
2022-11-10T04:24:49.971Z,39.47
2022-11-10T04:27:35.636Z,41.58
2022-11-10T04:30:21.364Z,42.47
2022-11-10T04:33:07.016Z,39.70
2022-11-10T04:35:52.578Z,38.35
2022-11-10T04:38:38.700Z,42.83
2022-11-10T04:41:25.374Z,40.88
2022-11-10T04:46:56.936Z,39.40
2022-11-10T04:49:42.552Z,37.53
2022-11-10T04:52:28.317Z,35.28
2022-11-10T04:55:13.893Z,36.40
2022-11-10T04:57:59.471Z,36.88
2022-11-10T05:00:45.476Z,36.75
2022-11-10T05:03:31.488Z,35.47
2022-11-10T05:06:18.344Z,36.88
2022-11-10T05:09:04.128Z,36.63
2022-11-10T05:11:49.712Z,37.53
2022-11-10T05:14:35.687Z,34.53
2022-11-10T05:17:22.349Z,35.33
2022-11-10T05:25:58.213Z,35.80
2022-11-10T05:28:45.167Z,35.90
2022-11-10T05:31:31.326Z,34.75
2022-11-10T05:34:16.925Z,34.63
2022-11-10T05:37:02.697Z,37.13
2022-11-10T05:39:48.513Z,35.72
2022-11-10T05:42:34.223Z,35.97
2022-11-10T05:45:23.880Z,34.63
2022-11-10T05:48:09.863Z,34.15
2022-11-10T05:50:55.463Z,33.90
2022-11-10T05:53:41.589Z,33.88
2022-11-10T05:56:27.218Z,32.42
2022-11-10T05:59:12.863Z,35.78
2022-11-10T06:01:58.483Z,35.40
2022-11-10T06:04:44.460Z,37.30
2022-11-10T06:07:30.470Z,36.97
2022-11-10T06:10:16.447Z,36.85
2022-11-10T06:13:02.654Z,37.15
2022-11-10T06:15:50.565Z,37.67
2022-11-10T06:18:36.788Z,37.33
2022-11-10T06:21:22.431Z,38.08
2022-11-10T06:24:08.363Z,39.67
2022-11-10T06:26:53.996Z,36.03
2022-11-10T06:29:39.603Z,37.30
2022-11-10T06:32:25.333Z,37.17
2022-11-10T06:35:11.223Z,36.30
2022-11-10T06:38:04.563Z,36.78
2022-11-10T06:40:50.580Z,36.58
2022-11-10T06:43:36.508Z,32.65
2022-11-10T06:46:22.273Z,37.40
2022-11-10T06:49:08.212Z,34.25
2022-11-10T06:51:53.819Z,34.00
2022-11-10T06:54:39.570Z,38.35
2022-11-10T06:57:25.612Z,36.17
2022-11-10T07:00:11.954Z,35.95
2022-11-10T07:03:05.438Z,34.95
2022-11-10T07:05:51.376Z,34.42
2022-11-10T07:08:37.589Z,34.28
2022-11-10T07:11:23.487Z,34.97
2022-11-10T07:14:09.573Z,35.10
2022-11-10T07:19:41.281Z,36.53
2022-11-10T07:22:26.881Z,34.78
2022-11-10T07:25:12.522Z,36.58
2022-11-10T07:28:00.094Z,36.13
2022-11-10T07:30:46.217Z,38.22
2022-11-10T07:33:31.844Z,35.60
2022-11-10T07:36:17.646Z,38.22
2022-11-10T07:39:03.533Z,37.50
2022-11-10T07:41:52.488Z,36.25
2022-11-10T07:44:38.867Z,36.15
2022-11-10T07:47:24.833Z,36.88
2022-11-10T07:50:10.690Z,37.40
2022-11-10T07:53:16.360Z,37.53
2022-11-10T07:56:02.255Z,32.90
2022-11-10T07:58:48.351Z,36.33
2022-11-10T08:01:35.552Z,37.00
2022-11-10T08:04:22.719Z,33.88
2022-11-10T08:07:09.237Z,35.17
2022-11-10T08:09:55.381Z,35.90
2022-11-10T08:12:41.281Z,35.05
2022-11-10T08:15:27.492Z,36.80
2022-11-10T08:18:16.878Z,34.67
2022-11-10T08:21:03.336Z,32.42
2022-11-10T08:23:49.459Z,32.50
2022-11-10T08:26:35.424Z,36.42
2022-11-10T08:29:21.253Z,32.92
2022-11-10T08:32:06.835Z,32.22
2022-11-10T08:34:52.586Z,32.17
2022-11-10T08:37:38.369Z,32.47
2022-11-10T08:40:25.025Z,33.38
2022-11-10T08:43:11.759Z,28.92
2022-11-10T08:45:57.899Z,29.67
2022-11-10T08:48:43.630Z,29.42
2022-11-10T08:51:30.952Z,26.85
2022-11-10T08:54:19.846Z,25.62
2022-11-10T08:57:06.266Z,26.90
2022-11-10T08:59:52.104Z,29.80
2022-11-10T09:02:37.932Z,28.02
2022-11-10T09:05:23.616Z,27.70
2022-11-10T09:08:14.379Z,26.58
2022-11-10T09:11:02.452Z,27.48
2022-11-10T09:13:48.208Z,26.08
2022-11-10T09:16:34.021Z,25.25
2022-11-10T09:19:20.381Z,26.12
2022-11-10T09:22:06.078Z,27.87
2022-11-10T09:24:51.988Z,27.87
2022-11-10T09:30:23.884Z,28.30
2022-11-10T09:36:02.789Z,29.45
2022-11-10T09:38:48.666Z,29.52
2022-11-10T09:41:38.161Z,32.13
2022-11-10T09:44:26.527Z,28.38
2022-11-10T09:47:56.892Z,30.65
2022-11-10T09:50:48.762Z,29.42
2022-11-10T09:53:41.722Z,28.30
2022-11-10T09:56:35.117Z,30.77
2022-11-10T09:59:26.221Z,30.95
2022-11-10T10:02:50.453Z,31.25
2022-11-10T10:06:02.547Z,34.10
2022-11-10T10:08:51.695Z,36.85
2022-11-10T10:11:49.166Z,34.00
2022-11-10T10:14:42.458Z,37.45
2022-11-10T10:17:38.314Z,35.30
2022-11-10T10:20:45.157Z,35.10
2022-11-10T10:24:07.733Z,35.00
2022-11-10T10:29:43.258Z,33.35
2022-11-10T10:32:29.224Z,31.10
2022-11-10T10:35:16.344Z,33.83
2022-11-10T10:38:03.748Z,34.30
2022-11-10T10:40:51.020Z,32.80
2022-11-10T10:43:36.853Z,33.85
2022-11-10T10:46:28.401Z,34.05
2022-11-10T10:49:31.498Z,32.75
2022-11-10T10:52:18.216Z,32.33
2022-11-10T10:55:08.048Z,32.60
2022-11-10T10:58:00.904Z,30.40
2022-11-10T11:00:51.783Z,31.62
2022-11-10T11:03:44.474Z,31.92
2022-11-10T11:06:33.819Z,32.88
2022-11-10T11:09:24.276Z,31.98
2022-11-10T11:12:13.053Z,31.58
2022-11-10T11:15:26.611Z,30.80
2022-11-10T11:18:17.245Z,28.23
2022-11-10T11:21:33.620Z,28.67
2022-11-10T11:24:25.271Z,30.62
2022-11-10T11:27:36.278Z,28.10
2022-11-10T11:30:23.527Z,31.23
2022-11-10T11:33:15.034Z,29.52
2022-11-10T11:36:30.428Z,28.27
2022-11-10T11:39:28.750Z,30.05
2022-11-10T11:42:28.951Z,30.27
2022-11-10T11:45:21.938Z,29.17
2022-11-10T11:48:42.449Z,27.67
2022-11-10T11:51:50.097Z,28.62
2022-11-10T11:55:10.976Z,28.77
2022-11-10T11:58:20.079Z,31.30
2022-11-10T12:01:24.500Z,30.08
2022-11-10T12:04:43.018Z,28.42
2022-11-10T12:07:45.133Z,32.17
2022-11-10T12:10:47.821Z,30.98
2022-11-10T12:13:53.480Z,28.70
2022-11-10T12:16:39.341Z,29.73
2022-11-10T12:19:37.317Z,29.17
2022-11-10T12:22:39.652Z,28.55
2022-11-10T12:25:32.602Z,28.17
2022-11-10T12:28:24.105Z,28.75
2022-11-10T12:31:14.525Z,29.37
2022-11-10T12:34:06.084Z,28.80
2022-11-10T12:36:51.752Z,29.92
2022-11-10T12:39:53.892Z,30.35
2022-11-10T12:42:39.642Z,27.58
2022-11-10T12:45:35.405Z,33.33
2022-11-10T12:48:21.714Z,30.55
2022-11-10T12:51:21.803Z,31.25
2022-11-10T12:54:16.323Z,31.67
2022-11-10T12:57:13.720Z,35.37
2022-11-10T13:00:05.073Z,30.27
2022-11-10T13:02:50.897Z,31.92
2022-11-10T13:05:42.011Z,32.78
2022-11-10T13:08:32.848Z,28.73
2022-11-10T13:11:18.256Z,32.03
2022-11-10T13:14:04.448Z,30.17
2022-11-10T13:16:52.336Z,31.33
2022-11-10T13:19:39.129Z,31.17
2022-11-10T13:22:31.757Z,32.47
2022-11-10T13:25:36.067Z,32.38
2022-11-10T13:28:47.144Z,30.65
2022-11-10T13:31:33.039Z,32.53
2022-11-10T13:34:18.899Z,31.25
2022-11-10T13:37:29.412Z,34.75
2022-11-10T13:40:24.289Z,31.25
2022-11-10T13:43:13.073Z,32.97
2022-11-10T13:46:00.022Z,32.65
2022-11-10T13:49:01.584Z,33.58
2022-11-10T13:51:56.219Z,33.75
2022-11-10T13:55:20.260Z,32.08
2022-11-10T13:58:09.361Z,33.15
2022-11-10T14:01:17.047Z,30.52
2022-11-10T14:04:03.048Z,36.10
2022-11-10T14:06:50.590Z,33.00
2022-11-10T14:09:41.314Z,33.00
2022-11-10T14:12:46.445Z,31.85
2022-11-10T14:15:39.378Z,35.30
2022-11-10T14:18:27.093Z,32.20
2022-11-10T14:21:42.487Z,33.95
2022-11-10T14:24:39.270Z,31.48
2022-11-10T14:27:29.759Z,33.08
2022-11-10T14:30:21.698Z,31.73
2022-11-10T14:33:11.117Z,34.08
2022-11-10T14:36:01.319Z,34.22
2022-11-10T14:38:47.135Z,33.60
2022-11-10T14:41:33.147Z,33.08
2022-11-10T14:44:24.226Z,32.75
2022-11-10T14:47:31.078Z,31.67
2022-11-10T14:50:19.509Z,30.08
2022-11-10T14:53:15.888Z,29.63
2022-11-10T14:56:02.431Z,32.15
2022-11-10T14:58:48.384Z,30.55
2022-11-10T15:01:36.816Z,31.17
2022-11-10T15:04:33.276Z,30.33
2022-11-10T15:13:06.414Z,31.52
2022-11-10T15:15:53.629Z,34.60
2022-11-10T15:18:39.595Z,34.85
2022-11-10T15:21:30.370Z,33.38
2022-11-10T15:24:16.055Z,35.25
2022-11-10T15:27:01.872Z,33.53
2022-11-10T15:29:48.006Z,36.08
2022-11-10T15:32:35.246Z,31.40
2022-11-10T15:35:23.709Z,31.05
2022-11-10T15:38:09.242Z,31.35
2022-11-10T15:41:12.761Z,33.63
2022-11-10T15:44:22.234Z,32.65
2022-11-10T15:47:10.267Z,31.67
2022-11-10T15:49:56.124Z,33.08
2022-11-10T15:52:42.113Z,32.05
2022-11-10T15:55:29.681Z,31.05
2022-11-10T15:58:17.129Z,32.28
2022-11-10T16:01:03.405Z,33.55
2022-11-10T16:03:49.327Z,33.90
2022-11-10T16:06:35.440Z,30.37
2022-11-10T16:09:21.376Z,36.42
2022-11-10T16:12:13.217Z,30.62
2022-11-10T16:14:59.687Z,30.60
2022-11-10T16:17:45.645Z,30.80
2022-11-10T16:20:31.192Z,30.27
2022-11-10T16:23:17.117Z,31.70
2022-11-10T16:26:03.354Z,30.65
2022-11-10T16:31:35.090Z,30.70
2022-11-10T16:34:20.771Z,34.15
2022-11-10T16:37:06.543Z,36.33
2022-11-10T16:39:52.172Z,34.17
2022-11-10T16:42:37.848Z,32.85
2022-11-10T16:45:24.417Z,31.77
2022-11-10T16:48:13.566Z,30.75
2022-11-10T16:50:59.500Z,32.05
2022-11-10T16:53:45.677Z,30.10
2022-11-10T16:56:31.497Z,28.33
2022-11-10T16:59:17.312Z,26.98
2022-11-10T17:02:03.037Z,29.85
2022-11-10T17:04:48.749Z,27.35
2022-11-10T17:07:34.911Z,29.45
2022-11-10T17:10:20.652Z,28.92
2022-11-10T17:13:08.652Z,30.98
2022-11-10T17:15:57.683Z,29.80
2022-11-10T17:18:43.470Z,29.77
2022-11-10T17:21:32.826Z,27.35
2022-11-10T17:24:18.927Z,26.85
2022-11-10T17:27:04.777Z,27.15
2022-11-10T17:29:50.768Z,29.73
2022-11-10T17:33:03.184Z,27.17
2022-11-10T17:35:42.353Z,25.58
2022-11-10T17:38:29.004Z,25.77
2022-11-10T17:41:19.023Z,29.30
2022-11-10T17:44:04.827Z,27.60
2022-11-10T17:46:50.802Z,29.05
2022-11-10T17:49:36.584Z,31.27
2022-11-10T17:52:22.553Z,32.30
2022-11-10T17:55:23.524Z,31.10
2022-11-10T17:58:10.087Z,27.87
2022-11-10T18:00:56.087Z,27.52
2022-11-10T18:03:41.758Z,28.35
2022-11-10T18:06:27.535Z,29.30
2022-11-10T18:09:13.304Z,28.52
2022-11-10T18:11:58.931Z,29.17
2022-11-10T18:14:44.637Z,29.92
2022-11-10T18:17:30.309Z,29.12
2022-11-10T18:20:16.508Z,29.05
2022-11-10T18:25:48.065Z,29.52
2022-11-10T18:28:34.598Z,29.73
2022-11-10T18:31:20.325Z,27.62
2022-11-10T18:34:06.062Z,26.65
2022-11-10T18:36:52.328Z,30.62
2022-11-10T18:42:24.589Z,30.15
2022-11-10T18:45:11.146Z,31.20
2022-11-10T18:48:01.141Z,30.25
2022-11-10T18:50:46.928Z,30.35
2022-11-10T18:53:37.910Z,22.50
2022-11-10T18:56:25.090Z,30.20
2022-11-10T18:59:10.978Z,28.90
2022-11-10T19:01:56.819Z,29.60
2022-11-10T19:04:42.784Z,30.52
2022-11-10T19:07:29.220Z,29.30
2022-11-10T19:10:15.320Z,30.15
2022-11-10T19:13:01.206Z,28.65
2022-11-10T19:15:46.873Z,28.38
2022-11-10T19:18:32.537Z,28.58
2022-11-10T19:21:19.949Z,26.67
2022-11-10T19:24:06.063Z,28.50
2022-11-10T19:29:37.807Z,28.92
2022-11-10T19:32:25.005Z,28.90
2022-11-10T19:35:13.300Z,28.48
2022-11-10T19:37:58.918Z,29.92
2022-11-10T19:40:45.218Z,31.80
2022-11-10T19:43:31.085Z,29.77
2022-11-10T19:46:18.192Z,28.75
2022-11-10T19:49:04.269Z,28.45
2022-11-10T19:51:50.509Z,29.58
2022-11-10T19:54:36.445Z,28.50
2022-11-10T20:00:12.346Z,28.35
2022-11-10T20:02:58.208Z,29.08
2022-11-10T20:05:46.221Z,28.27
2022-11-10T20:08:32.281Z,28.25
2022-11-10T20:11:22.046Z,28.85
2022-11-10T20:14:07.542Z,29.08
2022-11-10T20:16:53.465Z,30.23
2022-11-10T20:19:41.129Z,27.85
2022-11-10T20:22:27.528Z,29.37
2022-11-10T20:25:13.492Z,28.67
2022-11-10T20:28:01.295Z,28.92
2022-11-10T20:30:46.989Z,27.83
2022-11-10T20:33:32.820Z,28.00
2022-11-10T20:36:26.217Z,28.02
2022-11-10T20:39:11.986Z,27.55
2022-11-10T20:41:57.650Z,26.62
2022-11-10T20:44:43.392Z,26.27
2022-11-10T20:47:29.392Z,26.15
2022-11-10T20:50:19.208Z,26.77
2022-11-10T20:53:07.621Z,26.37
2022-11-10T20:55:57.945Z,26.95
2022-11-10T20:58:45.064Z,25.30
2022-11-10T21:01:30.866Z,25.52
2022-11-10T21:04:17.011Z,29.20
2022-11-10T21:07:02.723Z,27.30
2022-11-10T21:09:48.732Z,27.98
2022-11-10T21:12:49.978Z,24.67
2022-11-10T21:15:38.125Z,25.30
2022-11-10T21:18:28.226Z,27.13
2022-11-10T21:21:34.354Z,26.48
2022-11-10T21:24:20.873Z,23.92
2022-11-10T21:27:06.755Z,24.73
2022-11-10T21:29:52.871Z,25.58
2022-11-10T21:32:38.916Z,25.52
2022-11-10T21:35:25.500Z,25.08
2022-11-10T21:38:12.169Z,25.58
2022-11-10T21:43:43.416Z,25.25
2022-11-10T21:46:29.269Z,24.87
2022-11-10T21:49:15.119Z,25.33
2022-11-10T21:52:00.911Z,23.38
2022-11-10T21:54:46.670Z,22.90
2022-11-10T21:57:32.356Z,21.58
2022-11-10T22:00:18.275Z,23.62
2022-11-10T22:03:03.963Z,22.62
2022-11-10T22:05:49.514Z,22.23
2022-11-10T22:08:35.806Z,22.00
2022-11-10T22:11:40.444Z,22.70
2022-11-10T22:14:45.181Z,22.50
2022-11-10T22:17:50.654Z,22.52
2022-11-10T22:20:36.572Z,24.15
2022-11-10T22:23:42.189Z,24.48
2022-11-10T22:26:28.032Z,23.33
2022-11-10T22:29:13.800Z,24.58
2022-11-10T22:32:00.592Z,25.60
2022-11-10T22:34:46.489Z,26.07
2022-11-10T22:37:33.158Z,26.33
2022-11-10T22:40:38.126Z,24.70
2022-11-10T22:43:42.928Z,24.58
2022-11-10T22:46:28.889Z,26.37
2022-11-10T22:49:15.531Z,24.83
2022-11-10T22:52:01.379Z,25.30
2022-11-10T22:54:47.042Z,23.42
2022-11-10T22:57:32.787Z,22.73
2022-11-10T23:00:18.482Z,23.73
2022-11-10T23:03:04.291Z,23.25
2022-11-10T23:05:55.933Z,22.33
2022-11-10T23:08:43.361Z,22.65
2022-11-10T23:11:30.580Z,22.98
2022-11-10T23:14:16.629Z,23.62
2022-11-10T23:17:02.540Z,23.20
2022-11-10T23:19:48.288Z,23.98
2022-11-10T23:22:34.259Z,22.33
2022-11-10T23:25:20.088Z,25.77
2022-11-10T23:28:05.746Z,25.17
2022-11-10T23:30:51.519Z,21.83
2022-11-10T23:33:37.743Z,22.50
2022-11-10T23:39:09.526Z,23.15
2022-11-10T23:41:55.596Z,24.02
2022-11-10T23:44:41.707Z,25.00
2022-11-10T23:47:27.525Z,23.27
2022-11-10T23:50:13.270Z,24.12
2022-11-10T23:52:59.540Z,23.05
2022-11-10T23:55:45.550Z,22.60
2022-11-10T23:58:31.808Z,22.02
